Time;durP1;ratioP1;P1;durP2;ratioP2;P2;SDS_P1;SDS_P2;PMS_P1;PMS_P2;Temp;Humidity;BMP_temperature;BMP_pressure;BME280_temperature;BME280_humidity;BME280_pressure;Samples;Min_cycle;Max_cycle;Signal;HPM_P1;HPM_P2
2023/10/18 00:02:06;;;;;;;0.65;0.65;;;4.90;99.90;;;;;;4399230;32;20188;-61
2023/10/18 00:04:31;;;;;;;0.70;0.70;;;4.90;99.90;;;;;;4399772;32;20622;-64
2023/10/18 00:06:58;;;;;;;0.50;0.50;;;4.80;99.90;;;;;;4402218;32;20143;-60
2023/10/18 00:09:56;;;;;;;1.48;1.05;;;4.90;99.90;;;;;;4398705;32;20505;-59
2023/10/18 00:12:09;;;;;;;0.85;0.85;;;4.80;99.90;;;;;;4379275;32;20545;-60
2023/10/18 00:14:35;;;;;;;1.10;1.00;;;4.80;99.90;;;;;;4398382;32;20054;-63
2023/10/18 00:17:01;;;;;;;0.52;0.52;;;4.80;99.90;;;;;;4398825;32;20573;-61
2023/10/18 00:19:26;;;;;;;2.05;0.88;;;4.70;99.90;;;;;;4400698;32;20086;-62
2023/10/18 00:21:53;;;;;;;1.20;1.05;;;4.70;99.90;;;;;;4399074;32;20584;-62
2023/10/18 00:24:19;;;;;;;0.77;0.75;;;4.70;99.90;;;;;;4398359;32;20447;-62
2023/10/18 00:26:45;;;;;;;0.70;0.70;;;4.80;99.90;;;;;;4396793;32;20113;-62
2023/10/18 00:29:10;;;;;;;1.77;1.10;;;4.80;99.90;;;;;;4385333;32;20074;-62
2023/10/18 00:31:36;;;;;;;0.60;0.60;;;4.60;99.90;;;;;;4384474;32;20203;-63
2023/10/18 00:34:04;;;;;;;0.55;0.55;;;4.70;99.90;;;;;;4399168;32;20432;-62
2023/10/18 00:36:30;;;;;;;0.50;0.50;;;4.70;99.90;;;;;;4398017;32;20098;-62
2023/10/18 00:38:55;;;;;;;0.40;0.40;;;4.60;99.90;;;;;;4396869;32;20062;-62
2023/10/18 00:41:22;;;;;;;0.30;0.30;;;4.70;99.90;;;;;;4399626;32;20147;-61
2023/10/18 00:43:52;;;;;;;0.55;0.55;;;4.60;99.90;;;;;;4399465;32;20062;-62
2023/10/18 00:46:17;;;;;;;3.92;1.95;;;4.60;99.90;;;;;;4386617;32;20070;-61
2023/10/18 00:48:44;;;;;;;0.50;0.50;;;4.60;99.90;;;;;;4396162;32;20117;-63
2023/10/18 00:51:13;;;;;;;0.68;0.68;;;4.70;99.90;;;;;;4382775;32;21303;-62
2023/10/18 00:53:39;;;;;;;1.40;1.30;;;4.70;99.90;;;;;;4386099;32;20133;-63
2023/10/18 00:56:06;;;;;;;3.53;1.17;;;4.70;99.90;;;;;;4399093;32;20089;-63
2023/10/18 00:58:34;;;;;;;0.47;0.47;;;4.50;99.90;;;;;;4398093;32;20070;-63
2023/10/18 01:01:08;;;;;;;0.57;0.57;;;4.50;99.90;;;;;;4376418;32;20097;-62
2023/10/18 01:03:36;;;;;;;1.67;1.17;;;4.50;99.90;;;;;;4379464;32;20136;-63
2023/10/18 01:06:08;;;;;;;0.65;0.65;;;4.50;99.90;;;;;;4401557;32;20153;-62
2023/10/18 01:08:37;;;;;;;0.82;0.82;;;4.50;99.90;;;;;;4396139;32;20070;-61
2023/10/18 01:11:07;;;;;;;0.32;0.32;;;4.50;99.90;;;;;;4386997;32;20418;-60
2023/10/18 01:13:37;;;;;;;0.37;0.37;;;4.50;99.90;;;;;;4384395;32;20122;-63
2023/10/18 01:16:07;;;;;;;1.08;0.93;;;4.40;99.90;;;;;;4400139;32;20109;-62
2023/10/18 01:18:33;;;;;;;0.57;0.57;;;4.30;99.90;;;;;;4395750;32;20085;-62
2023/10/18 01:21:00;;;;;;;0.50;0.50;;;4.20;99.90;;;;;;4400368;32;20113;-63
2023/10/18 01:23:27;;;;;;;0.40;0.40;;;4.30;99.90;;;;;;4397590;32;20107;-62
2023/10/18 01:25:52;;;;;;;0.95;0.95;;;4.30;99.90;;;;;;4398700;32;20109;-62
2023/10/18 01:28:18;;;;;;;3.70;1.45;;;4.40;99.90;;;;;;4398356;32;20136;-63
2023/10/18 01:30:43;;;;;;;10.77;0.82;;;4.40;99.90;;;;;;4400742;32;21435;-62
2023/10/18 01:33:13;;;;;;;1.08;0.82;;;4.40;99.90;;;;;;4397539;32;20473;-60
2023/10/18 01:35:46;;;;;;;0.30;0.30;;;4.40;99.90;;;;;;4400060;32;21292;-61
2023/10/18 01:38:15;;;;;;;0.52;0.52;;;4.40;99.90;;;;;;4395880;32;20086;-62
2023/10/18 01:40:52;;;;;;;1.65;0.70;;;4.40;99.90;;;;;;4400802;32;20097;-61
2023/10/18 01:43:17;;;;;;;1.55;1.45;;;4.40;99.90;;;;;;4385540;32;20110;-62
2023/10/18 01:45:47;;;;;;;0.30;0.30;;;4.30;99.90;;;;;;4401425;32;20097;-60
2023/10/18 01:48:17;;;;;;;0.32;0.32;;;4.20;99.90;;;;;;4399577;32;20082;-63
2023/10/18 01:50:43;;;;;;;0.73;0.73;;;4.10;99.90;;;;;;4402007;32;20079;-61
2023/10/18 01:53:15;;;;;;;1.60;0.80;;;4.20;99.90;;;;;;4397196;32;20070;-59
2023/10/18 01:55:44;;;;;;;0.35;0.35;;;4.20;99.90;;;;;;4403099;32;20061;-61
2023/10/18 01:58:10;;;;;;;0.75;0.75;;;4.30;99.90;;;;;;4372623;32;20092;-60
2023/10/18 02:00:41;;;;;;;1.10;1.00;;;4.30;99.90;;;;;;4402147;32;20760;-59
2023/10/18 02:03:08;;;;;;;0.60;0.60;;;4.30;99.90;;;;;;4398055;32;20805;-60
2023/10/18 02:05:38;;;;;;;3.75;2.37;;;4.20;99.90;;;;;;4404684;32;20074;-60
2023/10/18 02:08:05;;;;;;;1.12;1.05;;;4.10;99.90;;;;;;4386291;32;20562;-59
2023/10/18 02:10:32;;;;;;;2.97;1.85;;;4.10;99.90;;;;;;4386304;32;20093;-61
2023/10/18 02:12:57;;;;;;;1.08;0.68;;;4.00;99.90;;;;;;4373437;32;20711;-61
2023/10/18 02:15:24;;;;;;;0.62;0.62;;;4.00;99.90;;;;;;4385433;32;20141;-61
2023/10/18 02:17:53;;;;;;;1.12;0.77;;;4.10;99.90;;;;;;4396500;32;20086;-60
2023/10/18 02:20:26;;;;;;;1.25;0.80;;;4.20;99.90;;;;;;4386196;32;20175;-60
2023/10/18 02:22:59;;;;;;;1.48;0.88;;;4.20;99.90;;;;;;4385629;32;20085;-59
2023/10/18 02:25:57;;;;;;;3.47;1.45;;;4.30;99.90;;;;;;4386448;32;20121;-61
2023/10/18 02:28:27;;;;;;;0.82;0.80;;;4.30;99.90;;;;;;4386674;32;20087;-61
2023/10/18 02:30:58;;;;;;;0.88;0.55;;;4.30;99.90;;;;;;4402248;32;20475;-62
2023/10/18 02:33:38;;;;;;;0.45;0.45;;;4.30;99.90;;;;;;4389332;32;20213;-60
2023/10/18 02:36:08;;;;;;;;;;;4.30;99.90;;;;;;4402585;32;20452;-62
2023/10/18 02:38:33;;;;;;;2.60;1.67;;;4.40;99.90;;;;;;4382335;32;19974;-60
2023/10/18 02:41:03;;;;;;;0.50;0.50;;;4.40;99.90;;;;;;4400780;32;20132;-61
2023/10/18 02:43:29;;;;;;;1.75;0.70;;;4.50;99.90;;;;;;4386601;32;20070;-61
2023/10/18 02:45:54;;;;;;;0.45;0.45;;;4.50;99.90;;;;;;4400471;32;20842;-61
2023/10/18 02:48:24;;;;;;;0.30;0.30;;;4.50;99.90;;;;;;4396655;32;20085;-62
2023/10/18 02:50:50;;;;;;;0.30;0.30;;;4.50;99.90;;;;;;4375263;32;20461;-62
2023/10/18 02:53:17;;;;;;;0.55;0.55;;;4.50;99.90;;;;;;4401516;32;20085;-61
2023/10/18 02:55:50;;;;;;;0.98;0.82;;;4.50;99.90;;;;;;4400578;32;20093;-62
2023/10/18 02:58:15;;;;;;;0.55;0.55;;;4.50;99.90;;;;;;4381695;32;20123;-61
2023/10/18 03:00:41;;;;;;;0.70;0.70;;;4.50;99.90;;;;;;4400239;32;20070;-59
2023/10/18 03:03:07;;;;;;;0.65;0.65;;;4.50;99.90;;;;;;4401261;32;20062;-61
2023/10/18 03:05:40;;;;;;;0.70;0.70;;;4.40;99.90;;;;;;4387834;32;20082;-62
2023/10/18 03:08:08;;;;;;;1.30;0.82;;;4.30;99.90;;;;;;4385082;32;20109;-62
2023/10/18 03:10:43;;;;;;;0.68;0.68;;;4.30;99.90;;;;;;4400237;32;20101;-62
2023/10/18 03:13:11;;;;;;;1.60;1.40;;;4.20;99.90;;;;;;4401710;32;20411;-62
2023/10/18 03:15:49;;;;;;;0.90;0.62;;;4.20;99.90;;;;;;4401853;32;20074;-62
2023/10/18 03:18:17;;;;;;;1.20;1.10;;;4.20;99.90;;;;;;4395578;32;20372;-62
2023/10/18 03:20:43;;;;;;;0.68;0.68;;;4.30;99.90;;;;;;4397365;32;20101;-62
2023/10/18 03:23:08;;;;;;;2.20;1.12;;;4.30;99.90;;;;;;4400942;32;20058;-62
2023/10/18 03:25:34;;;;;;;1.37;1.00;;;4.30;99.90;;;;;;4401205;32;20069;-63
2023/10/18 03:28:04;;;;;;;1.12;1.02;;;;;;;;;;4402376;32;20498;-62
2023/10/18 03:30:54;;;;;;;0.53;0.53;;;4.10;99.90;;;;;;4386920;32;20443;-61
2023/10/18 03:33:19;;;;;;;0.88;0.88;;;4.10;99.90;;;;;;4399124;32;20164;-62
2023/10/18 03:36:01;;;;;;;0.40;0.40;;;4.10;99.90;;;;;;4399092;32;20086;-61
2023/10/18 03:38:30;;;;;;;0.68;0.62;;;4.20;99.90;;;;;;4396851;32;20077;-60
2023/10/18 03:40:56;;;;;;;0.73;0.73;;;4.20;99.90;;;;;;4399402;32;20446;-62
2023/10/18 03:43:26;;;;;;;1.65;1.40;;;4.20;99.90;;;;;;4398551;32;20137;-62
2023/10/18 03:46:09;;;;;;;1.08;0.98;;;4.20;99.90;;;;;;4400640;32;20077;-62
2023/10/18 03:49:10;;;;;;;0.50;0.50;;;4.10;99.90;;;;;;4401012;32;20082;-61
2023/10/18 03:51:23;;;;;;;1.00;0.82;;;4.10;99.90;;;;;;4379065;32;20094;-62
2023/10/18 03:53:53;;;;;;;0.52;0.52;;;4.10;99.90;;;;;;4385739;32;20535;-61
2023/10/18 03:56:22;;;;;;;1.62;1.25;;;4.10;99.90;;;;;;4383867;32;20106;-62
2023/10/18 03:58:49;;;;;;;1.48;1.12;;;4.10;99.90;;;;;;4401080;32;20093;-61
2023/10/18 04:01:21;;;;;;;1.17;1.00;;;4.10;99.90;;;;;;4399914;32;20109;-62
2023/10/18 04:03:49;;;;;;;3.08;0.77;;;4.10;99.90;;;;;;4402497;32;20854;-62
2023/10/18 04:06:27;;;;;;;0.93;0.90;;;4.10;99.90;;;;;;4399640;32;20113;-61
2023/10/18 04:08:53;;;;;;;0.70;0.70;;;4.10;99.90;;;;;;4401814;32;20499;-63
2023/10/18 04:11:26;;;;;;;1.33;1.02;;;4.10;99.90;;;;;;4396868;32;20074;-62
2023/10/18 04:13:52;;;;;;;1.33;1.23;;;4.10;99.90;;;;;;4400585;32;20089;-61
2023/10/18 04:16:18;;;;;;;0.95;0.90;;;4.00;99.90;;;;;;4384011;32;20082;-62
2023/10/18 04:18:44;;;;;;;0.75;0.75;;;4.00;99.90;;;;;;4384081;32;20071;-61
2023/10/18 04:21:15;;;;;;;1.08;1.08;;;4.10;99.90;;;;;;4395911;32;20093;-59
2023/10/18 04:23:46;;;;;;;1.27;1.15;;;4.20;99.90;;;;;;4385635;32;20081;-60
2023/10/18 04:26:18;;;;;;;0.40;0.40;;;4.20;99.90;;;;;;4402844;32;20089;-61
2023/10/18 04:28:45;;;;;;;1.15;1.05;;;4.20;99.90;;;;;;4399121;32;20082;-61
2023/10/18 04:31:12;;;;;;;0.88;0.88;;;4.20;99.90;;;;;;4399822;32;20089;-62
2023/10/18 04:33:41;;;;;;;0.65;0.65;;;4.10;99.90;;;;;;4385792;32;20423;-62
2023/10/18 04:36:11;;;;;;;1.58;1.48;;;4.20;99.90;;;;;;4399669;32;20501;-61
2023/10/18 04:38:42;;;;;;;1.15;0.93;;;4.10;99.90;;;;;;4384055;32;20086;-60
2023/10/18 04:41:09;;;;;;;1.45;1.35;;;4.20;99.90;;;;;;4402736;32;20118;-61
2023/10/18 04:43:36;;;;;;;0.77;0.77;;;4.10;99.90;;;;;;4387649;32;20431;-61
2023/10/18 04:46:22;;;;;;;3.37;0.85;;;4.10;99.90;;;;;;4386965;32;20082;-61
2023/10/18 04:51:26;;;;;;;0.75;0.75;;;4.10;99.90;;;;;;4401385;32;20062;-62
2023/10/18 04:53:57;;;;;;;2.35;1.55;;;4.10;99.90;;;;;;4390777;32;20090;-61
2023/10/18 04:56:33;;;;;;;1.17;0.85;;;4.00;99.90;;;;;;4387965;32;20219;-62
2023/10/18 04:58:59;;;;;;;0.70;0.70;;;4.00;99.90;;;;;;4383777;32;21197;-61
2023/10/18 05:01:35;;;;;;;0.55;0.55;;;4.00;99.90;;;;;;4383714;32;20153;-61
2023/10/18 05:04:18;;;;;;;4.60;1.67;;;4.00;99.90;;;;;;4400868;32;20114;-63
2023/10/18 05:06:54;;;;;;;0.55;0.55;;;4.00;99.90;;;;;;4389034;32;20170;-63
2023/10/18 05:09:57;;;;;;;0.80;0.80;;;4.00;99.90;;;;;;4400590;32;21378;-62
2023/10/18 05:14:53;;;;;;;0.50;0.50;;;4.10;99.90;;;;;;4394686;32;20101;-63
2023/10/18 05:17:23;;;;;;;0.73;0.73;;;4.10;99.90;;;;;;4365000;32;20115;-61
2023/10/18 05:19:49;;;;;;;0.65;0.65;;;4.10;99.90;;;;;;4386418;32;20098;-62
2023/10/18 05:22:23;;;;;;;1.20;1.10;;;4.10;99.90;;;;;;4383392;32;20722;-61
2023/10/18 05:27:38;;;;;;;0.70;0.70;;;4.10;99.90;;;;;;4355028;32;20693;-62
2023/10/18 05:30:14;;;;;;;1.20;1.17;;;4.10;99.90;;;;;;4374193;32;20082;-60
2023/10/18 05:32:49;;;;;;;0.68;0.68;;;4.10;99.90;;;;;;4354313;32;20511;-62
2023/10/18 05:35:26;;;;;;;2.33;1.52;;;4.00;99.90;;;;;;4377363;32;20073;-60
2023/10/18 05:38:06;;;;;;;0.95;0.93;;;4.10;99.90;;;;;;4341292;32;20102;-62
2023/10/18 05:40:45;;;;;;;3.78;1.95;;;4.00;99.90;;;;;;4375735;32;20075;-62
2023/10/18 05:43:43;;;;;;;0.60;0.60;;;4.00;99.90;;;;;;4360708;32;20470;-62
2023/10/18 05:45:57;;;;;;;0.45;0.45;;;4.10;99.90;;;;;;4362577;32;20090;-61
2023/10/18 05:48:24;;;;;;;0.95;0.82;;;4.10;99.90;;;;;;4364765;32;20126;-62
2023/10/18 05:50:49;;;;;;;0.43;0.43;;;4.10;99.90;;;;;;4364190;32;20078;-62
2023/10/18 05:53:18;;;;;;;0.50;0.50;;;4.10;99.90;;;;;;4356332;32;20094;-62
2023/10/18 05:55:52;;;;;;;0.40;0.40;;;4.10;99.90;;;;;;4351933;32;20078;-62
2023/10/18 05:58:25;;;;;;;2.42;1.42;;;4.10;99.90;;;;;;4349416;32;20118;-61
2023/10/18 06:00:52;;;;;;;0.50;0.50;;;4.20;99.90;;;;;;4347205;32;20167;-61
2023/10/18 06:03:18;;;;;;;1.45;1.00;;;4.20;99.90;;;;;;4340607;32;20227;-61
2023/10/18 06:05:45;;;;;;;0.50;0.50;;;4.20;99.90;;;;;;4344121;32;20154;-62
2023/10/18 06:08:13;;;;;;;1.77;1.48;;;4.20;99.90;;;;;;4342075;32;20139;-60
2023/10/18 06:10:38;;;;;;;0.60;0.60;;;4.20;99.90;;;;;;4349575;32;20396;-62
2023/10/18 06:13:09;;;;;;;0.68;0.68;;;4.20;99.90;;;;;;4352921;32;20093;-62
2023/10/18 06:15:38;;;;;;;0.57;0.57;;;4.20;99.90;;;;;;4342461;32;20638;-61
2023/10/18 06:18:06;;;;;;;0.70;0.62;;;4.20;99.90;;;;;;4358094;32;20834;-62
2023/10/18 06:20:37;;;;;;;1.08;0.98;;;4.20;99.90;;;;;;4358928;32;20138;-62
2023/10/18 06:23:17;;;;;;;1.85;1.17;;;4.30;99.90;;;;;;4352362;32;20109;-62
2023/10/18 06:25:49;;;;;;;2.33;1.70;;;4.30;99.90;;;;;;4371247;32;20107;-63
2023/10/18 06:28:20;;;;;;;0.75;0.75;;;4.30;99.90;;;;;;4364585;32;20199;-61
2023/10/18 06:30:51;;;;;;;3.20;1.35;;;4.30;99.90;;;;;;4363885;32;22198;-62
2023/10/18 06:33:19;;;;;;;2.62;1.58;;;4.30;99.90;;;;;;4355626;32;20482;-63
2023/10/18 06:35:51;;;;;;;0.60;0.60;;;4.40;99.90;;;;;;4349534;32;20098;-62
2023/10/18 06:38:22;;;;;;;1.87;1.00;;;4.40;99.90;;;;;;4354069;32;20559;-63
2023/10/18 06:40:53;;;;;;;0.77;0.70;;;4.40;99.90;;;;;;4347302;32;20169;-62
2023/10/18 06:43:20;;;;;;;1.55;1.25;;;4.40;99.90;;;;;;4352745;32;20261;-63
2023/10/18 06:45:46;;;;;;;2.60;1.55;;;4.40;99.90;;;;;;4354360;32;20097;-62
2023/10/18 06:48:14;;;;;;;1.33;0.95;;;4.50;99.90;;;;;;4360425;32;20204;-63
2023/10/18 06:50:40;;;;;;;1.45;1.12;;;4.60;99.90;;;;;;4358124;32;20573;-62
2023/10/18 06:53:06;;;;;;;0.93;0.88;;;4.70;99.90;;;;;;4362930;32;20731;-63
2023/10/18 06:55:41;;;;;;;0.60;0.60;;;4.70;99.90;;;;;;4359306;32;20160;-62
2023/10/18 07:00:53;;;;;;;3.60;1.20;;;4.80;99.90;;;;;;4374094;32;20130;-60
2023/10/18 07:03:25;;;;;;;0.80;0.80;;;4.90;99.90;;;;;;4372810;32;20106;-61
2023/10/18 07:05:52;;;;;;;0.65;0.65;;;5.00;99.90;;;;;;4366461;32;20109;-63
2023/10/18 07:08:19;;;;;;;1.37;1.27;;;5.00;99.90;;;;;;4371241;32;20157;-60
2023/10/18 07:11:02;;;;;;;1.10;1.00;;;5.00;99.90;;;;;;4380370;32;20110;-64
2023/10/18 07:13:38;;;;;;;18.60;2.05;;;5.10;99.90;;;;;;4381339;32;20159;-64
2023/10/18 07:16:11;;;;;;;0.40;0.40;;;5.00;99.90;;;;;;4370628;32;20118;-64
2023/10/18 07:18:38;;;;;;;1.05;0.90;;;5.10;99.90;;;;;;4375746;32;20546;-61
2023/10/18 07:21:06;;;;;;;0.68;0.68;;;5.10;99.90;;;;;;4365989;32;20809;-63
2023/10/18 07:23:36;;;;;;;0.60;0.60;;;5.20;99.90;;;;;;4372283;32;20111;-63
2023/10/18 07:26:02;;;;;;;0.60;0.60;;;5.40;99.90;;;;;;4385495;32;20081;-62
2023/10/18 07:28:29;;;;;;;0.65;0.65;;;5.50;99.90;;;;;;4372918;32;20154;-64
2023/10/18 07:30:55;;;;;;;0.30;0.30;;;5.50;99.90;;;;;;4377799;32;20125;-63
2023/10/18 07:33:23;;;;;;;0.60;0.60;;;5.60;99.90;;;;;;4362301;32;20089;-64
2023/10/18 07:35:49;;;;;;;0.57;0.57;;;5.70;99.90;;;;;;4353381;32;20093;-64
2023/10/18 07:38:14;;;;;;;0.95;0.90;;;5.70;99.90;;;;;;4379692;32;20118;-64
2023/10/18 07:40:41;;;;;;;0.98;0.62;;;5.90;99.90;;;;;;4367902;32;20114;-63
2023/10/18 07:43:12;;;;;;;1.65;1.00;;;5.90;99.90;;;;;;4374353;32;20781;-64
2023/10/18 07:45:39;;;;;;;1.12;1.02;;;6.00;99.90;;;;;;4374902;32;20093;-64
2023/10/18 07:48:05;;;;;;;0.65;0.62;;;6.10;99.90;;;;;;4355401;32;20086;-64
2023/10/18 07:53:05;;;;;;;0.62;0.62;;;6.30;99.90;;;;;;4369064;32;20070;-63
2023/10/18 07:55:36;;;;;;;1.42;1.33;;;6.40;99.90;;;;;;4363061;32;20861;-64
2023/10/18 07:58:07;;;;;;;0.60;0.60;;;6.50;99.90;;;;;;4361157;32;20082;-63
2023/10/18 08:00:32;;;;;;;0.98;0.95;;;6.60;99.90;;;;;;4363548;32;20073;-62
2023/10/18 08:02:59;;;;;;;0.55;0.55;;;6.70;99.90;;;;;;4379364;32;20193;-62
2023/10/18 08:05:43;;;;;;;0.52;0.52;;;6.80;99.90;;;;;;4352346;32;20105;-62
2023/10/18 08:08:11;;;;;;;0.50;0.50;;;6.90;99.90;;;;;;4358576;32;20082;-63
2023/10/18 08:10:38;;;;;;;0.50;0.50;;;7.10;99.90;;;;;;4365273;32;20139;-63
2023/10/18 08:13:07;;;;;;;3.20;1.35;;;7.20;99.90;;;;;;4359690;32;20089;-64
2023/10/18 08:15:36;;;;;;;0.57;0.52;;;7.30;99.90;;;;;;4359518;32;20094;-63
2023/10/18 08:18:14;;;;;;;0.75;0.75;;;7.30;99.90;;;;;;4347643;32;20099;-63
2023/10/18 08:20:55;;;;;;;0.70;0.70;;;7.40;99.90;;;;;;4363404;32;20101;-63
2023/10/18 08:25:51;;;;;;;2.28;0.80;;;7.50;99.90;;;;;;4367461;32;20961;-63
2023/10/18 08:28:17;;;;;;;0.62;0.62;;;7.60;99.90;;;;;;4372348;32;20300;-64
2023/10/18 08:33:10;;;;;;;2.30;0.90;;;7.90;99.90;;;;;;4364038;32;20082;-63
2023/10/18 08:35:37;;;;;;;0.70;0.68;;;7.90;99.90;;;;;;4373929;32;20353;-62
2023/10/18 08:38:03;;;;;;;0.50;0.50;;;8.00;99.90;;;;;;4355449;32;20085;-63
2023/10/18 08:43:28;;;;;;;0.70;0.70;;;8.10;99.90;;;;;;4359784;32;20130;-63
2023/10/18 08:45:55;;;;;;;0.88;0.88;;;8.20;99.90;;;;;;4348636;32;20216;-63
2023/10/18 08:48:28;;;;;;;0.50;0.50;;;8.30;99.90;;;;;;4372173;32;20110;-63
2023/10/18 08:50:55;;;;;;;0.65;0.65;;;8.40;99.90;;;;;;4374411;32;20109;-64
2023/10/18 08:53:22;;;;;;;0.52;0.52;;;8.50;99.90;;;;;;4374729;32;21072;-63
2023/10/18 08:55:52;;;;;;;1.60;0.88;;;8.60;99.90;;;;;;4377928;32;20090;-63
2023/10/18 08:58:19;;;;;;;1.73;1.08;;;8.80;99.90;;;;;;4371474;32;21154;-63
2023/10/18 09:03:16;;;;;;;1.30;0.98;;;8.90;99.90;;;;;;4362570;32;20102;-60
2023/10/18 09:05:42;;;;;;;0.40;0.40;;;9.00;99.90;;;;;;4363553;32;20219;-62
2023/10/18 09:08:14;;;;;;;0.50;0.50;;;9.10;99.90;;;;;;4368364;32;20602;-62
2023/10/18 09:10:48;;;;;;;0.52;0.52;;;9.20;99.90;;;;;;4346923;32;20098;-61
2023/10/18 09:15:54;;;;;;;0.90;0.50;;;9.30;99.90;;;;;;4365710;32;20116;-62
2023/10/18 09:18:22;;;;;;;2.35;0.82;;;9.30;99.90;;;;;;4368580;32;20165;-61
2023/10/18 09:20:48;;;;;;;0.52;0.52;;;9.40;99.90;;;;;;4366285;32;21226;-64
2023/10/18 09:23:31;;;;;;;0.57;0.57;;;9.50;99.90;;;;;;4345330;32;20106;-64
2023/10/18 09:26:40;;;;;;;0.40;0.40;;;9.50;99.90;;;;;;4359065;32;20133;-61
2023/10/18 09:28:46;;;;;;;0.43;0.43;;;9.60;99.90;;;;;;4352354;32;20089;-62
2023/10/18 09:31:18;;;;;;;0.43;0.43;;;9.60;99.90;;;;;;4350437;32;20145;-62
2023/10/18 09:33:52;;;;;;;0.73;0.47;;;9.80;99.90;;;;;;4347361;32;22426;-61
2023/10/18 09:36:20;;;;;;;0.55;0.55;;;9.90;99.90;;;;;;4374156;32;20234;-61
2023/10/18 09:38:48;;;;;;;1.48;0.80;;;9.90;99.90;;;;;;4351044;32;20162;-62
2023/10/18 09:41:14;;;;;;;0.50;0.50;;;10.00;99.90;;;;;;4353873;32;20081;-62
2023/10/18 09:43:40;;;;;;;0.43;0.43;;;10.10;99.90;;;;;;4350523;32;20157;-60
2023/10/18 09:46:05;;;;;;;0.70;0.70;;;10.10;99.90;;;;;;4375562;32;20367;-61
2023/10/18 09:48:33;;;;;;;0.50;0.50;;;10.20;99.90;;;;;;4363075;32;21995;-61
2023/10/18 09:51:10;;;;;;;0.75;0.75;;;10.20;99.90;;;;;;4358332;32;20090;-61
2023/10/18 09:53:42;;;;;;;0.85;0.85;;;10.20;99.90;;;;;;4377487;32;20127;-62
2023/10/18 09:56:10;;;;;;;1.23;0.85;;;10.30;99.90;;;;;;4358023;32;20126;-61
2023/10/18 09:58:41;;;;;;;15.52;1.62;;;10.30;99.90;;;;;;4361322;32;20137;-63
2023/10/18 10:03:57;;;;;;;0.70;0.70;;;10.40;99.90;;;;;;4365096;32;20786;-61
2023/10/18 10:06:25;;;;;;;0.30;0.30;;;10.30;99.90;;;;;;4370158;32;20227;-62
2023/10/18 10:09:11;;;;;;;0.30;0.30;;;10.30;99.90;;;;;;4344259;32;20570;-62
2023/10/18 10:11:43;;;;;;;0.70;0.70;;;10.40;99.90;;;;;;4347137;32;20102;-62
2023/10/18 10:14:10;;;;;;;1.08;0.80;;;10.40;99.90;;;;;;4374863;32;20106;-62
2023/10/18 10:16:39;;;;;;;0.62;0.60;;;10.50;99.90;;;;;;4373393;32;20605;-62
2023/10/18 10:19:11;;;;;;;0.60;0.60;;;10.60;99.90;;;;;;4371969;32;20178;-65
2023/10/18 10:21:37;;;;;;;1.80;0.95;;;10.70;99.90;;;;;;4366578;32;20087;-61
2023/10/18 10:24:29;;;;;;;1.65;0.62;;;10.70;99.90;;;;;;4362222;32;20090;-64
2023/10/18 10:26:52;;;;;;;0.90;0.90;;;10.80;99.90;;;;;;4367529;32;20580;-63
2023/10/18 10:29:33;;;;;;;1.85;1.20;;;10.90;99.90;;;;;;4370800;32;20101;-63
2023/10/18 10:32:05;;;;;;;2.28;1.20;;;11.00;99.90;;;;;;4373149;32;20567;-64
2023/10/18 10:34:34;;;;;;;0.55;0.55;;;11.10;99.90;;;;;;4354577;32;21179;-63
2023/10/18 10:37:08;;;;;;;0.37;0.37;;;11.20;99.90;;;;;;4371160;32;20164;-64
2023/10/18 10:39:36;;;;;;;5.40;0.80;;;11.20;99.90;;;;;;4376562;32;20118;-63
2023/10/18 10:42:09;;;;;;;3.08;0.73;;;11.30;99.90;;;;;;4370484;32;20136;-63
2023/10/18 10:44:55;;;;;;;2.60;1.15;;;11.40;99.90;;;;;;4375690;32;20390;-62
2023/10/18 10:47:29;;;;;;;0.30;0.30;;;11.50;99.90;;;;;;4357463;32;20248;-63
2023/10/18 10:49:58;;;;;;;1.02;0.62;;;11.40;99.90;;;;;;4377483;32;21118;-63
2023/10/18 10:52:29;;;;;;;0.82;0.80;;;11.40;99.90;;;;;;4366146;32;20094;-63
2023/10/18 10:55:15;;;;;;;0.30;0.30;;;11.50;99.90;;;;;;4347307;32;21291;-64
2023/10/18 10:57:44;;;;;;;0.30;0.30;;;11.60;99.90;;;;;;4340128;32;20081;-63
2023/10/18 11:00:49;;;;;;;0.25;0.25;;;11.70;99.90;;;;;;4365913;32;20114;-64
2023/10/18 11:03:06;;;;;;;0.30;0.30;;;11.80;99.90;;;;;;4360958;32;20090;-64
2023/10/18 11:05:39;;;;;;;0.50;0.45;;;11.90;99.90;;;;;;4371866;32;20097;-64
2023/10/18 11:08:05;;;;;;;0.40;0.40;;;11.90;99.90;;;;;;4368873;32;20099;-64
2023/10/18 11:10:39;;;;;;;0.50;0.50;;;12.00;99.90;;;;;;4364011;32;20934;-64
2023/10/18 11:13:07;;;;;;;0.32;0.32;;;12.10;99.90;;;;;;4373890;32;20101;-65
2023/10/18 11:15:36;;;;;;;0.30;0.30;;;12.30;99.90;;;;;;4376897;32;20090;-64
2023/10/18 11:18:17;;;;;;;0.40;0.40;;;12.20;99.90;;;;;;4365786;32;20102;-63
2023/10/18 11:20:58;;;;;;;0.45;0.45;;;12.30;99.90;;;;;;4363475;32;20125;-62
2023/10/18 11:23:26;;;;;;;0.45;0.45;;;12.60;99.90;;;;;;4358581;32;20125;-63
2023/10/18 11:25:56;;;;;;;0.30;0.30;;;12.90;99.90;;;;;;4373840;32;20086;-63
2023/10/18 11:28:28;;;;;;;0.40;0.40;;;13.00;99.90;;;;;;4364897;32;20621;-63
2023/10/18 11:30:56;;;;;;;0.40;0.40;;;13.20;99.90;;;;;;4366197;32;20838;-62
2023/10/18 11:33:35;;;;;;;0.35;0.35;;;13.40;99.90;;;;;;4370013;32;20126;-63
2023/10/18 11:36:02;;;;;;;0.40;0.40;;;13.40;99.90;;;;;;4377812;32;20352;-62
2023/10/18 11:38:33;;;;;;;0.55;0.55;;;13.60;99.90;;;;;;4369067;32;20461;-63
2023/10/18 11:41:04;;;;;;;0.30;0.30;;;13.90;99.90;;;;;;4363875;32;20125;-62
2023/10/18 11:43:39;;;;;;;0.30;0.30;;;14.30;99.90;;;;;;4364930;32;20672;-62
2023/10/18 11:46:06;;;;;;;0.37;0.37;;;14.40;99.90;;;;;;4356413;32;20184;-63
2023/10/18 11:48:33;;;;;;;0.32;0.32;;;14.60;99.90;;;;;;4344410;32;92321;-64
2023/10/18 11:50:59;;;;;;;0.40;0.40;;;14.70;99.90;;;;;;4373636;32;20114;-64
2023/10/18 11:53:26;;;;;;;0.37;0.37;;;15.00;99.90;;;;;;4344186;32;20078;-63
2023/10/18 11:55:56;;;;;;;0.40;0.40;;;15.50;99.90;;;;;;4355543;32;21791;-63
2023/10/18 11:58:23;;;;;;;0.40;0.40;;;15.80;99.90;;;;;;4361471;32;20085;-62
2023/10/18 12:00:55;;;;;;;0.40;0.40;;;15.60;99.90;;;;;;4356262;32;20131;-64
2023/10/18 12:03:23;;;;;;;6.35;0.50;;;15.70;99.90;;;;;;4381518;32;20541;-64
2023/10/18 12:05:49;;;;;;;0.85;0.85;;;15.90;99.90;;;;;;4377495;32;20090;-64
2023/10/18 12:08:16;;;;;;;0.37;0.37;;;15.90;99.90;;;;;;4360584;32;20097;-64
2023/10/18 12:10:41;;;;;;;0.73;0.62;;;16.00;99.90;;;;;;4367696;32;20609;-62
2023/10/18 12:13:11;;;;;;;0.50;0.50;;;16.00;99.90;;;;;;4373906;32;20078;-63
2023/10/18 12:15:37;;;;;;;0.60;0.60;;;16.00;99.90;;;;;;4364364;32;20089;-63
2023/10/18 12:18:04;;;;;;;0.50;0.50;;;16.20;99.90;;;;;;4356181;32;20149;-64
2023/10/18 12:20:35;;;;;;;0.40;0.40;;;16.20;99.90;;;;;;4364483;32;20200;-64
2023/10/18 12:23:10;;;;;;;1.00;0.50;;;16.20;99.90;;;;;;4370584;32;20510;-64
2023/10/18 12:25:38;;;;;;;0.50;0.50;;;16.40;99.90;;;;;;4368362;32;20154;-63
2023/10/18 12:28:04;;;;;;;3.05;1.33;;;16.50;99.90;;;;;;4384467;32;20180;-63
2023/10/18 12:30:38;;;;;;;1.80;1.27;;;16.50;99.90;;;;;;4372424;32;21975;-63
2023/10/18 12:33:06;;;;;;;1.37;1.27;;;17.00;99.90;;;;;;4371998;32;20780;-63
2023/10/18 12:35:32;;;;;;;1.35;1.12;;;16.90;99.90;;;;;;4369725;32;20108;-63
2023/10/18 12:37:57;;;;;;;0.50;0.50;;;16.90;99.90;;;;;;4362188;32;20656;-63
2023/10/18 12:40:32;;;;;;;0.75;0.75;;;16.90;99.90;;;;;;4367736;32;20368;-62
2023/10/18 12:43:00;;;;;;;5.30;0.95;;;16.80;99.90;;;;;;4352565;32;20099;-67
2023/10/18 12:45:26;;;;;;;0.77;0.77;;;16.50;99.90;;;;;;4361498;32;20479;-63
2023/10/18 12:47:52;;;;;;;1.73;1.02;;;16.00;99.90;;;;;;4370756;32;20429;-63
2023/10/18 12:50:19;;;;;;;7.62;1.30;;;15.60;99.90;;;;;;4358829;32;20106;-62
2023/10/18 12:52:46;;;;;;;0.55;0.50;;;15.20;99.90;;;;;;4385072;32;20081;-63
2023/10/18 12:55:45;;;;;;;0.60;0.60;;;15.10;99.90;;;;;;4379877;32;20092;-63
2023/10/18 12:57:59;;;;;;;21.35;1.40;;;15.00;99.90;;;;;;4359622;32;20105;-63
2023/10/18 13:00:26;;;;;;;0.55;0.55;;;14.90;99.90;;;;;;4389728;32;20089;-62
2023/10/18 13:05:22;;;;;;;1.10;0.60;;;14.50;99.90;;;;;;4377141;32;20078;-63
2023/10/18 13:07:59;;;;;;;0.40;0.40;;;14.40;99.90;;;;;;4390288;32;20078;-63
2023/10/18 13:10:32;;;;;;;0.40;0.40;;;14.30;99.90;;;;;;4374132;32;20123;-62
2023/10/18 13:13:04;;;;;;;0.60;0.60;;;14.20;99.90;;;;;;4381270;32;20156;-64
2023/10/18 13:15:33;;;;;;;0.60;0.60;;;14.20;99.90;;;;;;4388107;32;20407;-63
2023/10/18 13:17:58;;;;;;;0.62;0.55;;;14.10;99.90;;;;;;4381986;32;20121;-63
2023/10/18 13:20:24;;;;;;;0.45;0.45;;;14.00;99.90;;;;;;4383504;32;20086;-63
2023/10/18 13:22:57;;;;;;;3.40;0.50;;;14.00;99.90;;;;;;4379835;32;20187;-63
2023/10/18 13:25:36;;;;;;;0.37;0.37;;;14.00;99.90;;;;;;4395759;32;20464;-62
2023/10/18 13:28:05;;;;;;;1.60;0.65;;;13.90;99.90;;;;;;4375394;32;20165;-63
2023/10/18 13:30:32;;;;;;;0.98;0.93;;;14.00;99.90;;;;;;4380750;32;20197;-63
2023/10/18 13:33:01;;;;;;;0.40;0.40;;;14.00;99.90;;;;;;4397520;32;20620;-63
2023/10/18 13:35:28;;;;;;;0.40;0.40;;;13.90;99.90;;;;;;4395447;32;20696;-62
2023/10/18 13:37:55;;;;;;;0.60;0.60;;;13.80;99.90;;;;;;4374936;32;20078;-63
2023/10/18 13:40:21;;;;;;;0.50;0.50;;;13.90;99.90;;;;;;4396596;32;20597;-63
2023/10/18 13:42:50;;;;;;;0.30;0.30;;;13.80;99.90;;;;;;4402021;32;20082;-63